Time,TemperatureF,DewpointF,PressureIn,WindDirection,WindDirectionDegrees,WindSpeedMPH,WindSpeedGustMPH,Humidity,HourlyPrecipIn,Conditions,Clouds,dailyrainin,SoftwareType,DateUTC
2013-01-29 00:03:00,40.6,40.1,29.62,WSW,245,0.0,0.0,98,0.04,,---,0.00,VWS V14.01,2013-01-29 08:03:00,
2013-01-29 00:08:00,40.6,40.1,29.62,WSW,245,0.0,0.0,98,0.04,,---,0.00,VWS V14.01,2013-01-29 08:08:00,
2013-01-29 00:13:00,40.6,40.1,29.62,ESE,123,0.0,0.0,98,0.04,,---,0.00,VWS V14.01,2013-01-29 08:13:00,
2013-01-29 00:18:00,40.6,40.1,29.62,ESE,123,0.0,0.0,98,0.04,,---,0.00,VWS V14.01,2013-01-29 08:18:00,
2013-01-29 00:23:00,40.5,39.9,29.62,ESE,123,0.0,0.0,98,0.00,,---,0.00,VWS V14.01,2013-01-29 08:23:00,
2013-01-29 00:28:00,40.5,39.9,29.62,ESE,123,0.0,0.0,98,0.00,,---,0.00,VWS V14.01,2013-01-29 08:28:00,
2013-01-29 00:33:00,40.5,39.9,29.62,ESE,123,0.0,0.0,98,0.00,,---,0.00,VWS V14.01,2013-01-29 08:33:00,
2013-01-29 00:38:00,40.5,39.9,29.62,ESE,123,0.0,0.0,98,0.00,,---,0.00,VWS V14.01,2013-01-29 08:38:00,
2013-01-29 00:43:00,40.5,39.9,29.62,ESE,123,0.0,0.0,98,0.00,,---,0.00,VWS V14.01,2013-01-29 08:43:00,
2013-01-29 00:48:00,40.5,39.9,29.62,SW,233,0.0,2.7,98,0.00,,---,0.00,VWS V14.01,2013-01-29 08:48:00,
2013-01-29 00:53:00,40.5,39.9,29.62,SW,235,0.0,0.0,98,0.00,,---,0.00,VWS V14.01,2013-01-29 08:53:00,
2013-01-29 00:58:00,40.6,40.1,29.62,SW,226,0.0,3.6,98,0.00,,---,0.00,VWS V14.01,2013-01-29 08:58:00,
2013-01-29 01:03:00,40.6,40.1,29.62,SW,219,2.7,2.7,98,0.00,,---,0.00,VWS V14.01,2013-01-29 09:03:00,
2013-01-29 01:08:00,40.6,40.1,29.62,SW,226,2.2,2.2,98,0.04,,---,0.04,VWS V14.01,2013-01-29 09:08:00,
2013-01-29 01:13:00,40.6,40.1,29.62,East,100,0.0,0.0,98,0.04,,---,0.04,VWS V14.01,2013-01-29 09:13:00,
2013-01-29 01:18:00,40.6,40.1,29.62,South,176,0.0,4.0,98,0.04,,---,0.04,VWS V14.01,2013-01-29 09:18:00,
2013-01-29 01:23:00,40.6,40.1,29.62,WSW,244,0.0,2.7,98,0.04,,---,0.04,VWS V14.01,2013-01-29 09:23:00,
2013-01-29 01:28:00,40.8,40.3,29.62,SW,235,0.0,0.0,98,0.04,,---,0.04,VWS V14.01,2013-01-29 09:28:00,
2013-01-29 01:33:00,40.8,40.3,29.65,WSW,241,2.7,2.7,98,0.04,,---,0.04,VWS V14.01,2013-01-29 09:33:00,
2013-01-29 01:38:00,40.6,40.1,29.65,SE,125,0.0,0.0,98,0.04,,---,0.04,VWS V14.01,2013-01-29 09:38:00,
2013-01-29 01:43:00,40.8,40.3,29.65,SE,125,0.0,0.0,98,0.04,,---,0.04,VWS V14.01,2013-01-29 09:43:00,
2013-01-29 01:48:00,40.6,40.1,29.65,ESE,122,0.0,0.0,98,0.04,,---,0.04,VWS V14.01,2013-01-29 09:48:00,
2013-01-29 01:52:00,40.6,40.1,29.65,South,173,0.0,2.2,98,0.04,,---,0.04,VWS V14.01,2013-01-29 09:52:00,
2013-01-29 01:57:00,40.8,40.3,29.65,SSW,202,0.0,0.0,98,0.04,,---,0.04,VWS V14.01,2013-01-29 09:57:00,
2013-01-29 02:02:00,40.8,40.3,29.65,WSW,250,0.0,0.0,98,0.04,,---,0.04,VWS V14.01,2013-01-29 10:02:00,
2013-01-29 02:07:00,40.8,40.3,29.65,SW,236,2.7,3.6,98,0.00,,---,0.04,VWS V14.01,2013-01-29 10:07:00,
2013-01-29 02:12:00,41.0,40.5,29.65,SSE,154,0.0,0.0,98,0.00,,---,0.04,VWS V14.01,2013-01-29 10:12:00,
2013-01-29 02:17:00,41.0,40.5,29.65,SW,233,0.0,0.0,98,0.00,,---,0.04,VWS V14.01,2013-01-29 10:17:00,
2013-01-29 02:22:00,40.8,40.3,29.65,SW,234,0.0,0.0,98,0.00,,---,0.04,VWS V14.01,2013-01-29 10:22:00,
2013-01-29 02:27:00,40.8,40.3,29.65,WSW,240,0.0,0.0,98,0.00,,---,0.04,VWS V14.01,2013-01-29 10:27:00,
2013-01-29 02:32:00,40.8,40.3,29.65,WSW,240,0.0,0.0,98,0.00,,---,0.04,VWS V14.01,2013-01-29 10:32:00,
2013-01-29 02:37:00,40.8,40.3,29.65,WSW,240,0.0,0.0,98,0.00,,---,0.04,VWS V14.01,2013-01-29 10:37:00,
2013-01-29 02:42:00,40.8,40.3,29.65,WSW,240,0.0,0.0,98,0.00,,---,0.04,VWS V14.01,2013-01-29 10:42:00,
2013-01-29 02:47:00,40.8,40.3,29.65,WSW,240,0.0,0.0,98,0.00,,---,0.04,VWS V14.01,2013-01-29 10:47:00,
2013-01-29 02:52:00,40.6,40.1,29.65,WSW,240,0.0,0.0,98,0.00,,---,0.04,VWS V14.01,2013-01-29 10:52:00,
2013-01-29 02:57:00,40.6,40.1,29.65,WSW,240,0.0,0.0,98,0.00,,---,0.04,VWS V14.01,2013-01-29 10:57:00,
2013-01-29 03:02:00,40.6,40.1,29.65,WSW,240,0.0,0.0,98,0.00,,---,0.04,VWS V14.01,2013-01-29 11:02:00,
2013-01-29 03:07:00,40.6,40.1,29.65,SSW,199,0.0,0.0,98,0.00,,---,0.04,VWS V14.01,2013-01-29 11:07:00,
2013-01-29 03:12:00,40.8,40.3,29.65,WSW,254,0.0,0.0,98,0.00,,---,0.04,VWS V14.01,2013-01-29 11:12:00,
2013-01-29 03:17:00,40.8,40.3,29.65,WSW,254,0.0,0.0,98,0.00,,---,0.04,VWS V14.01,2013-01-29 11:17:00,
2013-01-29 03:22:00,40.8,40.3,29.65,WSW,254,0.0,0.0,98,0.00,,---,0.04,VWS V14.01,2013-01-29 11:22:00,
2013-01-29 03:27:00,41.0,40.5,29.65,WSW,254,0.0,0.0,98,0.00,,---,0.04,VWS V14.01,2013-01-29 11:27:00,
2013-01-29 03:32:00,41.0,40.5,29.65,NW,320,0.0,2.2,98,0.00,,---,0.04,VWS V14.01,2013-01-29 11:32:00,
2013-01-29 03:37:00,41.0,40.5,29.65,SSW,199,0.0,0.0,98,0.00,,---,0.04,VWS V14.01,2013-01-29 11:37:00,
2013-01-29 03:42:00,41.2,40.7,29.65,SSW,199,0.0,0.0,98,0.00,,---,0.04,VWS V14.01,2013-01-29 11:42:00,
2013-01-29 03:47:00,41.2,40.7,29.68,SSW,199,0.0,0.0,98,0.00,,---,0.04,VWS V14.01,2013-01-29 11:47:00,
2013-01-29 03:52:00,41.2,40.7,29.68,SSW,199,0.0,0.0,98,0.00,,---,0.04,VWS V14.01,2013-01-29 11:52:00,
2013-01-29 03:57:00,41.0,40.5,29.68,SSW,199,0.0,0.0,98,0.00,,---,0.04,VWS V14.01,2013-01-29 11:57:00,
2013-01-29 04:02:00,41.0,40.5,29.68,SSW,199,0.0,0.0,98,0.00,,---,0.04,VWS V14.01,2013-01-29 12:02:00,
2013-01-29 04:07:00,41.0,40.5,29.68,SSW,199,0.0,0.0,98,0.08,,---,0.12,VWS V14.01,2013-01-29 12:07:00,
2013-01-29 04:12:00,41.0,40.5,29.68,WSW,239,0.0,0.0,98,0.08,,---,0.12,VWS V14.01,2013-01-29 12:12:00,
2013-01-29 04:17:00,41.2,40.7,29.68,WSW,239,0.0,0.0,98,0.08,,---,0.12,VWS V14.01,2013-01-29 12:17:00,
2013-01-29 04:22:00,41.2,40.7,29.68,WSW,239,0.0,0.0,98,0.08,,---,0.12,VWS V14.01,2013-01-29 12:22:00,
2013-01-29 04:27:00,41.2,40.7,29.68,WSW,239,0.0,0.0,98,0.08,,---,0.12,VWS V14.01,2013-01-29 12:27:00,
2013-01-29 04:32:00,41.2,40.7,29.68,WSW,239,0.0,0.0,98,0.08,,---,0.12,VWS V14.01,2013-01-29 12:32:00,
2013-01-29 04:37:00,41.0,40.5,29.68,WSW,239,0.0,0.0,98,0.08,,---,0.12,VWS V14.01,2013-01-29 12:37:00,
2013-01-29 04:42:00,41.0,40.5,29.68,WSW,239,0.0,0.0,98,0.08,,---,0.12,VWS V14.01,2013-01-29 12:42:00,
2013-01-29 04:47:00,41.0,40.5,29.68,WSW,239,0.0,0.0,98,0.08,,---,0.12,VWS V14.01,2013-01-29 12:47:00,
2013-01-29 04:52:00,41.0,40.5,29.68,WSW,239,0.0,0.0,98,0.08,,---,0.12,VWS V14.01,2013-01-29 12:52:00,
2013-01-29 04:57:00,41.0,40.5,29.68,WSW,239,0.0,0.0,98,0.08,,---,0.12,VWS V14.01,2013-01-29 12:57:00,
2013-01-29 05:02:00,41.0,40.5,29.68,WSW,239,0.0,0.0,98,0.08,,---,0.12,VWS V14.01,2013-01-29 13:02:00,
2013-01-29 05:07:00,41.0,40.5,29.68,WSW,239,0.0,0.0,98,0.00,,---,0.12,VWS V14.01,2013-01-29 13:07:00,
2013-01-29 05:12:00,41.0,40.5,29.68,WSW,239,0.0,0.0,98,0.00,,---,0.12,VWS V14.01,2013-01-29 13:12:00,
2013-01-29 05:17:00,41.0,40.5,29.68,WSW,239,0.0,0.0,98,0.00,,---,0.12,VWS V14.01,2013-01-29 13:17:00,
2013-01-29 05:22:00,40.8,40.3,29.68,WSW,239,0.0,0.0,98,0.00,,---,0.12,VWS V14.01,2013-01-29 13:22:00,
2013-01-29 05:27:00,40.8,40.3,29.68,WSW,239,0.0,0.0,98,0.00,,---,0.12,VWS V14.01,2013-01-29 13:27:00,
2013-01-29 05:32:00,40.8,40.3,29.68,WSW,239,0.0,0.0,98,0.00,,---,0.12,VWS V14.01,2013-01-29 13:32:00,
2013-01-29 05:37:00,40.8,40.3,29.68,WSW,239,0.0,0.0,98,0.04,,---,0.16,VWS V14.01,2013-01-29 13:37:00,
2013-01-29 05:42:00,40.8,40.3,29.68,WSW,239,0.0,0.0,98,0.04,,---,0.16,VWS V14.01,2013-01-29 13:42:00,
2013-01-29 05:47:00,40.8,40.3,29.68,WSW,239,0.0,0.0,98,0.04,,---,0.16,VWS V14.01,2013-01-29 13:47:00,
2013-01-29 05:52:00,40.8,40.3,29.68,WSW,240,0.0,0.0,98,0.04,,---,0.16,VWS V14.01,2013-01-29 13:52:00,
2013-01-29 05:57:00,40.8,40.3,29.68,WSW,239,0.0,0.0,98,0.04,,---,0.16,VWS V14.01,2013-01-29 13:57:00,
2013-01-29 06:02:00,40.8,40.3,29.68,WSW,239,0.0,0.0,98,0.04,,---,0.16,VWS V14.01,2013-01-29 14:02:00,
2013-01-29 06:07:00,40.8,40.3,29.68,WSW,239,0.0,0.0,98,0.04,,---,0.16,VWS V14.01,2013-01-29 14:07:00,
2013-01-29 06:12:00,40.8,40.3,29.68,WSW,239,0.0,0.0,98,0.04,,---,0.16,VWS V14.01,2013-01-29 14:12:00,
2013-01-29 06:17:00,40.8,40.3,29.71,WSW,239,0.0,0.0,98,0.04,,---,0.16,VWS V14.01,2013-01-29 14:17:00,
2013-01-29 06:22:00,40.8,40.3,29.71,WSW,239,0.0,0.0,98,0.04,,---,0.16,VWS V14.01,2013-01-29 14:22:00,
2013-01-29 06:27:00,40.8,40.3,29.71,WSW,239,0.0,0.0,98,0.04,,---,0.16,VWS V14.01,2013-01-29 14:27:00,
2013-01-29 06:32:00,40.8,40.3,29.71,WSW,239,0.0,0.0,98,0.04,,---,0.16,VWS V14.01,2013-01-29 14:32:00,
2013-01-29 06:37:00,40.8,40.3,29.71,WSW,240,0.0,0.0,98,0.00,,---,0.16,VWS V14.01,2013-01-29 14:37:00,
2013-01-29 06:42:00,40.8,40.3,29.71,WSW,239,0.0,0.0,98,0.00,,---,0.16,VWS V14.01,2013-01-29 14:42:00,
2013-01-29 06:47:00,40.8,40.3,29.71,WSW,239,0.0,0.0,98,0.00,,---,0.16,VWS V14.01,2013-01-29 14:47:00,
2013-01-29 06:52:00,40.8,40.3,29.71,WSW,239,0.0,0.0,98,0.00,,---,0.16,VWS V14.01,2013-01-29 14:52:00,
2013-01-29 06:57:00,40.8,40.3,29.71,WSW,239,0.0,0.0,98,0.00,,---,0.16,VWS V14.01,2013-01-29 14:57:00,
2013-01-29 07:02:00,40.8,40.3,29.71,WSW,239,0.0,0.0,98,0.00,,---,0.16,VWS V14.01,2013-01-29 15:02:00,
2013-01-29 07:07:00,40.8,40.3,29.71,WSW,239,0.0,0.0,98,0.00,,---,0.16,VWS V14.01,2013-01-29 15:07:00,
2013-01-29 07:12:00,40.8,40.3,29.71,WSW,239,0.0,0.0,98,0.00,,---,0.16,VWS V14.01,2013-01-29 15:12:00,
2013-01-29 07:17:00,40.6,40.1,29.71,WSW,239,0.0,0.0,98,0.00,,---,0.16,VWS V14.01,2013-01-29 15:17:00,
2013-01-29 07:22:00,40.6,40.1,29.71,WSW,239,0.0,0.0,98,0.00,,---,0.16,VWS V14.01,2013-01-29 15:22:00,
2013-01-29 07:27:00,40.8,40.3,29.71,WSW,239,0.0,0.0,98,0.00,,---,0.16,VWS V14.01,2013-01-29 15:27:00,
2013-01-29 07:32:00,40.6,40.1,29.74,WSW,239,0.0,0.0,98,0.00,,---,0.16,VWS V14.01,2013-01-29 15:32:00,
2013-01-29 07:37:00,40.6,40.1,29.74,WSW,239,0.0,0.0,98,0.00,,---,0.16,VWS V14.01,2013-01-29 15:37:00,
2013-01-29 07:42:00,40.6,40.1,29.74,WSW,239,0.0,0.0,98,0.00,,---,0.16,VWS V14.01,2013-01-29 15:42:00,
2013-01-29 07:47:00,40.6,40.1,29.74,WSW,239,0.0,0.0,98,0.00,,---,0.16,VWS V14.01,2013-01-29 15:47:00,
2013-01-29 07:52:00,40.6,40.1,29.74,WSW,239,0.0,0.0,98,0.00,,---,0.16,VWS V14.01,2013-01-29 15:52:00,
2013-01-29 07:57:00,40.6,40.1,29.74,WSW,239,0.0,0.0,98,0.00,,---,0.00,VWS V14.01,2013-01-29 15:57:00,
2013-01-29 08:02:00,40.6,40.1,29.71,WSW,239,0.0,0.0,98,0.00,,---,0.16,VWS V14.01,2013-01-29 16:02:00,
2013-01-29 08:07:00,40.6,40.1,29.71,WSW,239,0.0,0.0,98,0.00,,---,0.16,VWS V14.01,2013-01-29 16:07:00,
2013-01-29 08:12:00,40.6,40.1,29.71,WSW,239,0.0,0.0,98,0.00,,---,0.16,VWS V14.01,2013-01-29 16:12:00,
2013-01-29 08:17:00,40.6,40.1,29.74,WSW,239,0.0,0.0,98,0.04,,---,0.20,VWS V14.01,2013-01-29 16:17:00,
2013-01-29 08:22:00,40.6,40.1,29.74,WSW,239,0.0,0.0,98,0.04,,---,0.20,VWS V14.01,2013-01-29 16:22:00,
2013-01-29 08:27:00,40.8,40.3,29.74,WSW,239,0.0,0.0,98,0.04,,---,0.20,VWS V14.01,2013-01-29 16:27:00,
2013-01-29 08:32:00,40.8,40.3,29.74,WSW,239,0.0,0.0,98,0.04,,---,0.20,VWS V14.01,2013-01-29 16:32:00,
2013-01-29 08:37:00,40.8,40.3,29.74,WSW,239,0.0,0.0,98,0.04,,---,0.20,VWS V14.01,2013-01-29 16:37:00,
2013-01-29 08:42:00,41.0,40.5,29.74,WSW,239,0.0,0.0,98,0.04,,---,0.20,VWS V14.01,2013-01-29 16:42:00,
2013-01-29 08:47:00,41.0,40.5,29.74,WSW,239,0.0,0.0,98,0.04,,---,0.20,VWS V14.01,2013-01-29 16:47:00,
2013-01-29 08:52:00,41.0,40.5,29.74,WSW,239,0.0,0.0,98,0.04,,---,0.20,VWS V14.01,2013-01-29 16:52:00,
2013-01-29 08:57:00,41.0,40.5,29.74,WSW,239,0.0,0.0,98,0.04,,---,0.20,VWS V14.01,2013-01-29 16:57:00,
2013-01-29 09:02:00,41.0,40.5,29.77,WSW,239,0.0,0.0,98,0.04,,---,0.20,VWS V14.01,2013-01-29 17:02:00,
2013-01-29 09:07:00,41.2,40.7,29.77,WSW,239,0.0,0.0,98,0.04,,---,0.20,VWS V14.01,2013-01-29 17:07:00,
2013-01-29 09:12:00,41.2,40.7,29.77,WSW,239,0.0,0.0,98,0.04,,---,0.20,VWS V14.01,2013-01-29 17:12:00,
2013-01-29 09:17:00,41.2,40.7,29.77,WSW,239,0.0,0.0,98,0.00,,---,0.20,VWS V14.01,2013-01-29 17:17:00,
2013-01-29 09:22:00,41.4,40.8,29.77,WSW,239,0.0,0.0,98,0.00,,---,0.20,VWS V14.01,2013-01-29 17:22:00,
2013-01-29 09:27:00,41.4,40.8,29.77,WSW,239,0.0,0.0,98,0.00,,---,0.20,VWS V14.01,2013-01-29 17:27:00,
2013-01-29 09:32:00,41.4,40.8,29.77,WSW,239,0.0,0.0,98,0.00,,---,0.20,VWS V14.01,2013-01-29 17:32:00,
2013-01-29 09:37:00,41.5,41.0,29.77,WSW,239,0.0,0.0,98,0.00,,---,0.20,VWS V14.01,2013-01-29 17:37:00,
2013-01-29 09:42:00,41.5,41.0,29.77,WSW,240,0.0,0.0,98,0.00,,---,0.20,VWS V14.01,2013-01-29 17:42:00,
2013-01-29 09:47:00,41.5,41.0,29.77,WSW,239,0.0,0.0,98,0.00,,---,0.20,VWS V14.01,2013-01-29 17:47:00,
2013-01-29 09:52:00,41.7,41.2,29.77,WSW,239,0.0,0.0,98,0.00,,---,0.20,VWS V14.01,2013-01-29 17:52:00,
2013-01-29 09:57:00,41.9,41.4,29.77,WSW,239,0.0,0.0,98,0.00,,---,0.20,VWS V14.01,2013-01-29 17:57:00,
2013-01-29 10:02:00,41.9,41.4,29.77,WSW,239,0.0,0.0,98,0.00,,---,0.20,VWS V14.01,2013-01-29 18:02:00,
2013-01-29 10:07:00,42.1,41.6,29.77,WSW,239,0.0,0.0,98,0.00,,---,0.20,VWS V14.01,2013-01-29 18:07:00,
2013-01-29 10:12:00,42.3,41.7,29.77,WSW,239,0.0,0.0,98,0.00,,---,0.20,VWS V14.01,2013-01-29 18:12:00,
2013-01-29 10:17:00,42.4,41.9,29.80,WSW,239,0.0,0.0,98,0.00,,---,0.20,VWS V14.01,2013-01-29 18:17:00,
2013-01-29 10:22:00,42.4,41.9,29.80,WSW,239,0.0,0.0,98,0.00,,---,0.20,VWS V14.01,2013-01-29 18:22:00,
2013-01-29 10:27:00,42.6,42.1,29.80,WSW,239,0.0,0.0,98,0.00,,---,0.20,VWS V14.01,2013-01-29 18:27:00,
2013-01-29 10:32:00,42.8,42.3,29.80,WSW,239,0.0,0.0,98,0.00,,---,0.20,VWS V14.01,2013-01-29 18:32:00,
2013-01-29 10:37:00,42.8,42.3,29.80,WSW,239,0.0,0.0,98,0.00,,---,0.20,VWS V14.01,2013-01-29 18:37:00,
2013-01-29 10:42:00,42.8,42.3,29.80,WSW,239,0.0,0.0,98,0.00,,---,0.20,VWS V14.01,2013-01-29 18:42:00,
2013-01-29 10:47:00,43.0,42.5,29.80,WSW,239,0.0,0.0,98,0.00,,---,0.20,VWS V14.01,2013-01-29 18:47:00,
2013-01-29 10:52:00,43.2,42.6,29.80,WSW,239,0.0,0.0,98,0.00,,---,0.20,VWS V14.01,2013-01-29 18:52:00,
2013-01-29 10:57:00,43.2,42.6,29.80,WSW,239,0.0,0.0,98,0.00,,---,0.20,VWS V14.01,2013-01-29 18:57:00,
2013-01-29 11:02:00,43.3,42.8,29.80,WSW,239,0.0,0.0,98,0.00,,---,0.20,VWS V14.01,2013-01-29 19:02:00,
2013-01-29 11:07:00,43.3,42.8,29.80,WSW,239,0.0,0.0,98,0.00,,---,0.20,VWS V14.01,2013-01-29 19:07:00,
2013-01-29 11:12:00,43.3,42.8,29.80,WSW,239,0.0,0.0,98,0.00,,---,0.20,VWS V14.01,2013-01-29 19:12:00,
2013-01-29 11:17:00,43.5,43.0,29.80,WSW,239,0.0,0.0,98,0.00,,---,0.20,VWS V14.01,2013-01-29 19:17:00,
2013-01-29 11:22:00,43.5,43.0,29.80,WSW,239,0.0,0.0,98,0.00,,---,0.20,VWS V14.01,2013-01-29 19:22:00,
2013-01-29 11:27:00,43.7,43.2,29.80,WSW,239,0.0,0.0,98,0.00,,---,0.20,VWS V14.01,2013-01-29 19:27:00,
2013-01-29 11:32:00,43.7,43.2,29.80,WSW,239,0.0,0.0,98,0.00,,---,0.20,VWS V14.01,2013-01-29 19:32:00,
2013-01-29 11:37:00,43.9,43.3,29.80,WSW,239,0.0,0.0,98,0.00,,---,0.20,VWS V14.01,2013-01-29 19:37:00,
2013-01-29 11:42:00,44.1,43.5,29.80,WSW,239,0.0,0.0,98,0.00,,---,0.20,VWS V14.01,2013-01-29 19:42:00,
2013-01-29 11:47:00,44.1,43.5,29.80,WSW,239,0.0,0.0,98,0.00,,---,0.20,VWS V14.01,2013-01-29 19:47:00,
2013-01-29 11:52:00,44.2,43.7,29.80,WSW,239,0.0,0.0,98,0.00,,---,0.20,VWS V14.01,2013-01-29 19:52:00,
2013-01-29 11:57:00,44.2,43.7,29.80,WSW,239,0.0,0.0,98,0.00,,---,0.20,VWS V14.01,2013-01-29 19:57:00,
2013-01-29 12:02:00,44.4,43.9,29.80,WSW,239,0.0,0.0,98,0.00,,---,0.20,VWS V14.01,2013-01-29 20:02:00,
2013-01-29 12:07:00,44.4,43.9,29.80,WSW,239,0.0,0.0,98,0.00,,---,0.20,VWS V14.01,2013-01-29 20:07:00,
2013-01-29 12:12:00,44.4,43.9,29.80,WSW,239,0.0,0.0,98,0.04,,---,0.24,VWS V14.01,2013-01-29 20:12:00,
2013-01-29 12:17:00,44.6,44.1,29.80,WSW,239,0.0,0.0,98,0.04,,---,0.24,VWS V14.01,2013-01-29 20:17:00,
2013-01-29 12:22:00,44.6,44.1,29.80,WSW,239,0.0,0.0,98,0.04,,---,0.24,VWS V14.01,2013-01-29 20:22:00,
2013-01-29 12:27:00,44.8,44.2,29.80,WSW,239,0.0,0.0,98,0.04,,---,0.24,VWS V14.01,2013-01-29 20:27:00,
2013-01-29 12:32:00,45.0,44.4,29.80,WSW,239,0.0,0.0,98,0.04,,---,0.24,VWS V14.01,2013-01-29 20:32:00,
2013-01-29 12:37:00,45.1,44.6,29.80,WSW,239,0.0,0.0,98,0.04,,---,0.24,VWS V14.01,2013-01-29 20:37:00,
2013-01-29 12:42:00,45.1,44.6,29.80,WSW,239,0.0,0.0,98,0.04,,---,0.24,VWS V14.01,2013-01-29 20:42:00,
2013-01-29 12:47:00,45.1,44.6,29.80,WSW,239,0.0,0.0,98,0.04,,---,0.24,VWS V14.01,2013-01-29 20:47:00,
2013-01-29 12:52:00,45.1,44.6,29.80,WSW,239,0.0,0.0,98,0.08,,---,0.28,VWS V14.01,2013-01-29 20:52:00,
2013-01-29 12:57:00,45.3,44.8,29.80,WSW,239,0.0,0.0,98,0.08,,---,0.28,VWS V14.01,2013-01-29 20:57:00,
2013-01-29 13:02:00,45.3,44.8,29.80,WSW,239,0.0,0.0,98,0.08,,---,0.28,VWS V14.01,2013-01-29 21:02:00,
2013-01-29 13:07:00,45.5,45.0,29.80,WSW,239,0.0,0.0,98,0.08,,---,0.28,VWS V14.01,2013-01-29 21:07:00,
2013-01-29 13:12:00,45.7,45.2,29.80,WSW,239,0.0,0.0,98,0.04,,---,0.28,VWS V14.01,2013-01-29 21:12:00,
2013-01-29 13:17:00,45.9,45.3,29.80,WSW,239,0.0,0.0,98,0.04,,---,0.28,VWS V14.01,2013-01-29 21:17:00,
2013-01-29 13:22:00,46.0,45.5,29.80,WSW,239,0.0,0.0,98,0.04,,---,0.28,VWS V14.01,2013-01-29 21:22:00,
2013-01-29 13:27:00,46.0,45.5,29.80,WSW,239,0.0,0.0,98,0.04,,---,0.28,VWS V14.01,2013-01-29 21:27:00,
2013-01-29 13:32:00,46.0,45.5,29.80,WSW,239,0.0,0.0,98,0.04,,---,0.28,VWS V14.01,2013-01-29 21:32:00,
2013-01-29 13:37:00,46.2,45.7,29.80,WSW,239,0.0,0.0,98,0.04,,---,0.28,VWS V14.01,2013-01-29 21:37:00,
2013-01-29 13:42:00,46.4,45.9,29.80,WSW,239,0.0,0.0,98,0.04,,---,0.28,VWS V14.01,2013-01-29 21:42:00,
2013-01-29 13:47:00,46.4,45.9,29.80,WSW,239,0.0,0.0,98,0.04,,---,0.28,VWS V14.01,2013-01-29 21:47:00,
2013-01-29 13:52:00,46.4,45.9,29.80,WSW,239,0.0,0.0,98,0.00,,---,0.28,VWS V14.01,2013-01-29 21:52:00,
2013-01-29 13:57:00,46.6,46.0,29.80,WSW,239,0.0,0.0,98,0.00,,---,0.28,VWS V14.01,2013-01-29 21:57:00,
2013-01-29 14:02:00,46.6,46.0,29.83,WSW,239,0.0,0.0,98,0.00,,---,0.28,VWS V14.01,2013-01-29 22:02:00,
2013-01-29 14:07:00,46.4,45.9,29.83,WSW,239,0.0,0.0,98,0.00,,---,0.28,VWS V14.01,2013-01-29 22:07:00,
2013-01-29 14:12:00,46.4,45.9,29.83,WSW,239,0.0,0.0,98,0.04,,---,0.31,VWS V14.01,2013-01-29 22:12:00,
2013-01-29 14:17:00,46.4,45.9,29.83,WSW,239,0.0,0.0,98,0.04,,---,0.31,VWS V14.01,2013-01-29 22:17:00,
2013-01-29 14:22:00,46.4,45.9,29.83,WSW,239,0.0,0.0,98,0.04,,---,0.31,VWS V14.01,2013-01-29 22:22:00,
2013-01-29 14:27:00,46.4,45.9,29.83,WSW,239,0.0,0.0,98,0.04,,---,0.31,VWS V14.01,2013-01-29 22:27:00,
2013-01-29 14:32:00,46.4,45.9,29.83,WSW,239,0.0,0.0,98,0.04,,---,0.31,VWS V14.01,2013-01-29 22:32:00,
2013-01-29 14:37:00,46.4,45.9,29.83,WSW,239,0.0,0.0,98,0.04,,---,0.00,VWS V14.01,2013-01-29 22:37:00,
2013-01-29 14:42:00,46.4,45.9,29.83,WSW,239,0.0,0.0,98,0.04,,---,0.31,VWS V14.01,2013-01-29 22:42:00,
2013-01-29 14:47:00,46.4,45.9,29.83,WSW,239,0.0,0.0,98,0.04,,---,0.31,VWS V14.01,2013-01-29 22:47:00,
2013-01-29 14:52:00,46.4,45.9,29.83,WSW,239,0.0,0.0,98,0.04,,---,0.31,VWS V14.01,2013-01-29 22:52:00,
2013-01-29 14:57:00,46.4,45.9,29.83,East,86,0.0,3.1,98,0.04,,---,0.31,VWS V14.01,2013-01-29 22:57:00,
2013-01-29 15:02:00,46.2,45.7,29.83,East,86,0.0,0.0,98,0.08,,---,0.35,VWS V14.01,2013-01-29 23:02:00,
2013-01-29 15:07:00,46.2,45.7,29.83,East,86,0.0,0.0,98,0.08,,---,0.35,VWS V14.01,2013-01-29 23:07:00,
2013-01-29 15:12:00,46.0,45.5,29.83,East,86,0.0,0.0,98,0.04,,---,0.35,VWS V14.01,2013-01-29 23:12:00,
2013-01-29 15:17:00,45.9,45.3,29.83,East,86,0.0,0.0,98,0.04,,---,0.35,VWS V14.01,2013-01-29 23:17:00,
2013-01-29 15:22:00,45.9,45.3,29.83,East,81,0.0,0.0,98,0.04,,---,0.35,VWS V14.01,2013-01-29 23:22:00,
2013-01-29 15:27:00,45.9,45.3,29.83,East,81,0.0,0.0,98,0.04,,---,0.35,VWS V14.01,2013-01-29 23:27:00,
2013-01-29 15:32:00,45.9,45.3,29.83,East,81,0.0,0.0,98,0.04,,---,0.35,VWS V14.01,2013-01-29 23:32:00,
2013-01-29 15:37:00,45.9,45.3,29.83,East,81,0.0,0.0,98,0.04,,---,0.35,VWS V14.01,2013-01-29 23:37:00,
2013-01-29 15:42:00,45.7,45.2,29.83,East,81,0.0,0.0,98,0.04,,---,0.35,VWS V14.01,2013-01-29 23:42:00,
2013-01-29 15:47:00,45.7,45.2,29.83,East,81,0.0,0.0,98,0.04,,---,0.35,VWS V14.01,2013-01-29 23:47:00,
2013-01-29 15:52:00,45.7,45.2,29.83,East,82,0.0,0.0,98,0.04,,---,0.35,VWS V14.01,2013-01-29 23:52:00,
2013-01-29 15:57:00,45.7,45.2,29.83,East,81,0.0,0.0,98,0.04,,---,0.35,VWS V14.01,2013-01-29 23:57:00,
2013-01-29 16:02:00,45.7,45.2,29.83,East,81,0.0,0.0,98,0.00,,---,0.35,VWS V14.01,2013-01-30 00:02:00,
2013-01-29 16:07:00,45.7,45.2,29.83,East,81,0.0,0.0,98,0.00,,---,0.35,VWS V14.01,2013-01-30 00:07:00,
2013-01-29 16:12:00,45.7,45.2,29.83,SW,225,2.2,2.7,98,0.04,,---,0.39,VWS V14.01,2013-01-30 00:12:00,
2013-01-29 16:17:00,45.7,45.2,29.83,SW,225,0.0,0.0,98,0.04,,---,0.39,VWS V14.01,2013-01-30 00:17:00,
2013-01-29 16:22:00,45.7,45.2,29.83,SW,218,3.1,3.1,98,0.04,,---,0.39,VWS V14.01,2013-01-30 00:22:00,
2013-01-29 16:27:00,45.7,45.2,29.83,SE,125,0.0,0.0,98,0.04,,---,0.39,VWS V14.01,2013-01-30 00:27:00,
2013-01-29 16:31:00,45.5,45.0,29.83,SSW,200,2.2,3.1,98,0.04,,---,0.39,VWS V14.01,2013-01-30 00:31:00,
2013-01-29 16:36:00,45.5,45.0,29.83,WSW,237,0.0,2.7,98,0.04,,---,0.39,VWS V14.01,2013-01-30 00:36:00,
2013-01-29 16:41:00,45.5,45.0,29.83,SSE,165,0.0,0.0,98,0.04,,---,0.39,VWS V14.01,2013-01-30 00:41:00,
2013-01-29 16:46:00,45.5,45.0,29.83,SW,236,0.0,0.0,98,0.04,,---,0.39,VWS V14.01,2013-01-30 00:46:00,
2013-01-29 16:51:00,45.5,45.0,29.83,South,174,0.0,0.0,98,0.04,,---,0.39,VWS V14.01,2013-01-30 00:51:00,
2013-01-29 16:56:00,45.5,45.0,29.83,West,279,0.0,2.2,98,0.04,,---,0.39,VWS V14.01,2013-01-30 00:56:00,
2013-01-29 17:01:00,45.5,45.0,29.83,South,171,2.7,2.7,98,0.04,,---,0.39,VWS V14.01,2013-01-30 01:01:00,
2013-01-29 17:06:00,45.5,45.0,29.83,SW,233,2.2,2.7,98,0.04,,---,0.39,VWS V14.01,2013-01-30 01:06:00,
2013-01-29 17:11:00,45.5,45.0,29.83,South,172,2.2,2.7,98,0.00,,---,0.39,VWS V14.01,2013-01-30 01:11:00,
2013-01-29 17:16:00,45.3,44.8,29.85,SW,218,0.0,2.2,98,0.00,,---,0.39,VWS V14.01,2013-01-30 01:16:00,
2013-01-29 17:21:00,45.5,45.0,29.85,WSW,237,0.0,2.2,98,0.00,,---,0.39,VWS V14.01,2013-01-30 01:21:00,
2013-01-29 17:26:00,45.5,45.0,29.85,South,182,2.2,5.8,98,0.00,,---,0.39,VWS V14.01,2013-01-30 01:26:00,
2013-01-29 17:31:00,45.5,45.0,29.85,WSW,244,3.6,3.6,98,0.00,,---,0.39,VWS V14.01,2013-01-30 01:31:00,
2013-01-29 17:36:00,45.5,45.0,29.85,SSW,213,5.8,5.8,98,0.00,,---,0.39,VWS V14.01,2013-01-30 01:36:00,
2013-01-29 17:41:00,45.5,45.0,29.85,SSE,163,6.7,7.6,98,0.00,,---,0.39,VWS V14.01,2013-01-30 01:41:00,
2013-01-29 17:46:00,45.5,45.0,29.85,ENE,57,2.2,4.0,98,0.00,,---,0.39,VWS V14.01,2013-01-30 01:46:00,
2013-01-29 17:51:00,45.5,45.0,29.85,SSW,199,0.0,5.8,98,0.00,,---,0.39,VWS V14.01,2013-01-30 01:51:00,
2013-01-29 17:56:00,45.5,45.0,29.85,WSW,239,3.6,3.6,98,0.00,,---,0.39,VWS V14.01,2013-01-30 01:56:00,
2013-01-29 18:01:00,45.5,45.0,29.85,SW,223,2.7,6.3,98,0.00,,---,0.39,VWS V14.01,2013-01-30 02:01:00,
2013-01-29 18:06:00,45.5,45.0,29.85,SW,227,0.0,2.7,98,0.00,,---,0.39,VWS V14.01,2013-01-30 02:06:00,
2013-01-29 18:11:00,45.5,45.0,29.85,SSE,158,5.4,5.4,98,0.00,,---,0.39,VWS V14.01,2013-01-30 02:11:00,
2013-01-29 18:16:00,45.5,45.0,29.85,WSW,256,3.6,8.1,98,0.00,,---,0.39,VWS V14.01,2013-01-30 02:16:00,
2013-01-29 18:21:00,45.5,45.0,29.85,South,187,3.6,5.4,98,0.00,,---,0.39,VWS V14.01,2013-01-30 02:21:00,
2013-01-29 18:26:00,45.5,45.0,29.85,SE,127,0.0,2.2,98,0.00,,---,0.39,VWS V14.01,2013-01-30 02:26:00,
2013-01-29 18:31:00,45.3,44.8,29.85,SSE,147,0.0,3.1,98,0.00,,---,0.39,VWS V14.01,2013-01-30 02:31:00,
2013-01-29 18:36:00,45.3,44.8,29.85,SE,129,3.1,4.0,98,0.00,,---,0.39,VWS V14.01,2013-01-30 02:36:00,
2013-01-29 18:41:00,45.5,45.0,29.85,SW,221,0.0,3.6,98,0.00,,---,0.39,VWS V14.01,2013-01-30 02:41:00,
2013-01-29 18:46:00,45.5,45.0,29.85,WSW,244,0.0,2.7,98,0.00,,---,0.39,VWS V14.01,2013-01-30 02:46:00,
2013-01-29 18:51:00,45.5,45.0,29.85,SSW,210,0.0,3.1,98,0.00,,---,0.39,VWS V14.01,2013-01-30 02:51:00,
2013-01-29 18:56:00,45.5,45.0,29.85,SW,221,5.4,5.4,98,0.00,,---,0.39,VWS V14.01,2013-01-30 02:56:00,
2013-01-29 19:01:00,45.5,45.0,29.88,SSW,194,2.7,2.7,98,0.00,,---,0.39,VWS V14.01,2013-01-30 03:01:00,
2013-01-29 19:06:00,45.5,45.0,29.88,WSW,245,2.2,5.8,98,0.00,,---,0.39,VWS V14.01,2013-01-30 03:06:00,
2013-01-29 19:11:00,45.5,45.0,29.88,WNW,302,3.1,4.0,98,0.00,,---,0.39,VWS V14.01,2013-01-30 03:11:00,
2013-01-29 19:16:00,45.5,45.0,29.85,South,174,3.1,6.3,98,0.00,,---,0.39,VWS V14.01,2013-01-30 03:16:00,
2013-01-29 19:21:00,45.5,45.0,29.85,ESE,112,3.6,4.0,98,0.00,,---,0.39,VWS V14.01,2013-01-30 03:21:00,
2013-01-29 19:26:00,45.7,45.2,29.85,SW,230,2.7,5.4,98,0.00,,---,0.39,VWS V14.01,2013-01-30 03:26:00,
2013-01-29 19:31:00,45.7,45.2,29.85,WSW,244,4.0,5.8,98,0.00,,---,0.39,VWS V14.01,2013-01-30 03:31:00,
2013-01-29 19:36:00,45.7,45.2,29.85,SW,228,3.6,5.4,98,0.00,,---,0.39,VWS V14.01,2013-01-30 03:36:00,
2013-01-29 19:41:00,45.7,45.2,29.85,NW,313,7.6,7.6,98,0.00,,---,0.39,VWS V14.01,2013-01-30 03:41:00,
2013-01-29 19:46:00,45.7,45.2,29.85,SW,219,6.3,6.3,98,0.00,,---,0.39,VWS V14.01,2013-01-30 03:46:00,
2013-01-29 19:51:00,45.7,45.2,29.85,SW,236,7.6,7.6,98,0.00,,---,0.39,VWS V14.01,2013-01-30 03:51:00,
2013-01-29 19:56:00,45.7,45.2,29.85,SW,224,6.3,8.1,98,0.04,,---,0.43,VWS V14.01,2013-01-30 03:56:00,
2013-01-29 20:01:00,45.5,45.0,29.85,WNW,286,4.0,4.0,98,0.04,,---,0.43,VWS V14.01,2013-01-30 04:01:00,
2013-01-29 20:06:00,45.5,45.0,29.85,South,181,3.6,5.4,98,0.04,,---,0.43,VWS V14.01,2013-01-30 04:06:00,
2013-01-29 20:11:00,45.5,45.0,29.85,SE,124,6.3,6.3,98,0.04,,---,0.43,VWS V14.01,2013-01-30 04:11:00,
2013-01-29 20:16:00,45.5,45.0,29.85,WSW,249,0.0,3.1,98,0.04,,---,0.43,VWS V14.01,2013-01-30 04:16:00,
2013-01-29 20:21:00,45.5,45.0,29.85,West,262,3.6,9.2,98,0.04,,---,0.43,VWS V14.01,2013-01-30 04:21:00,
2013-01-29 20:26:00,45.5,45.0,29.85,SSE,168,4.9,8.3,98,0.04,,---,0.43,VWS V14.01,2013-01-30 04:26:00,
2013-01-29 20:31:00,45.5,45.0,29.83,SW,223,5.4,7.6,98,0.04,,---,0.43,VWS V14.01,2013-01-30 04:31:00,
2013-01-29 20:36:00,45.5,45.0,29.83,West,264,3.6,4.9,98,0.08,,---,0.47,VWS V14.01,2013-01-30 04:36:00,
2013-01-29 20:41:00,45.5,45.0,29.83,WSW,238,3.1,4.0,98,0.08,,---,0.47,VWS V14.01,2013-01-30 04:41:00,
2013-01-29 20:46:00,45.5,45.0,29.85,WSW,244,5.8,5.8,98,0.08,,---,0.47,VWS V14.01,2013-01-30 04:46:00,
2013-01-29 20:51:00,45.5,45.0,29.85,SW,228,2.7,3.6,98,0.08,,---,0.47,VWS V14.01,2013-01-30 04:51:00,
2013-01-29 20:56:00,45.3,44.8,29.85,SW,231,5.4,5.4,98,0.04,,---,0.47,VWS V14.01,2013-01-30 04:56:00,
2013-01-29 21:02:00,45.3,44.8,29.85,SE,142,0.0,2.7,98,0.04,,---,0.47,VWS V14.01,2013-01-30 05:02:00,
2013-01-29 21:03:00,45.3,44.8,29.85,SE,142,0.0,0.0,98,0.04,,---,0.47,VWS V14.01,2013-01-30 05:03:00,
2013-01-29 21:08:00,45.3,44.8,29.85,WSW,247,3.6,3.6,98,0.04,,---,0.47,VWS V14.01,2013-01-30 05:08:00,
2013-01-29 21:13:00,45.3,44.8,29.85,WSW,246,0.0,0.0,98,0.04,,---,0.47,VWS V14.01,2013-01-30 05:13:00,
2013-01-29 21:18:00,45.1,44.6,29.85,WNW,282,6.3,6.3,98,0.04,,---,0.47,VWS V14.01,2013-01-30 05:18:00,
2013-01-29 21:23:00,45.1,44.6,29.85,SSE,164,3.6,3.6,98,0.04,,---,0.47,VWS V14.01,2013-01-30 05:23:00,
2013-01-29 21:28:00,45.1,44.6,29.85,SW,218,5.8,5.8,98,0.08,,---,0.51,VWS V14.01,2013-01-30 05:28:00,
2013-01-29 21:33:00,45.1,44.6,29.85,WSW,253,8.1,8.3,98,0.08,,---,0.51,VWS V14.01,2013-01-30 05:33:00,
2013-01-29 21:38:00,45.0,44.4,29.85,ESE,118,0.0,0.0,98,0.04,,---,0.51,VWS V14.01,2013-01-30 05:38:00,
2013-01-29 21:43:00,45.0,44.4,29.85,SW,221,8.1,8.1,98,0.04,,---,0.51,VWS V14.01,2013-01-30 05:43:00,
2013-01-29 21:48:00,44.8,44.2,29.85,West,266,2.2,2.2,98,0.04,,---,0.51,VWS V14.01,2013-01-30 05:48:00,
2013-01-29 21:53:00,44.8,44.2,29.85,SW,225,2.7,3.6,98,0.04,,---,0.51,VWS V14.01,2013-01-30 05:53:00,
2013-01-29 21:58:00,44.8,44.2,29.85,South,177,2.2,2.2,98,0.04,,---,0.51,VWS V14.01,2013-01-30 05:58:00,
2013-01-29 22:03:00,44.8,44.2,29.85,South,179,2.2,4.0,98,0.04,,---,0.51,VWS V14.01,2013-01-30 06:03:00,
2013-01-29 22:08:00,44.8,44.2,29.85,SE,135,6.3,6.3,98,0.04,,---,0.51,VWS V14.01,2013-01-30 06:08:00,
2013-01-29 22:13:00,44.8,44.2,29.85,South,179,5.8,5.8,98,0.08,,---,0.55,VWS V14.01,2013-01-30 06:13:00,
2013-01-29 22:18:00,44.8,44.2,29.85,West,269,2.7,2.7,98,0.08,,---,0.55,VWS V14.01,2013-01-30 06:18:00,
2013-01-29 22:23:00,44.8,44.2,29.85,WSW,242,3.6,3.6,98,0.08,,---,0.55,VWS V14.01,2013-01-30 06:23:00,
2013-01-29 22:28:00,44.6,44.1,29.85,SE,127,3.1,3.1,98,0.04,,---,0.55,VWS V14.01,2013-01-30 06:28:00,
2013-01-29 22:33:00,44.6,44.1,29.85,SSW,194,2.7,2.7,98,0.08,,---,0.59,VWS V14.01,2013-01-30 06:33:00,
2013-01-29 22:38:00,44.6,44.1,29.85,South,185,2.2,2.2,98,0.08,,---,0.59,VWS V14.01,2013-01-30 06:38:00,
2013-01-29 22:43:00,44.6,44.1,29.85,SE,127,2.2,2.2,98,0.08,,---,0.59,VWS V14.01,2013-01-30 06:43:00,
2013-01-29 22:48:00,44.6,44.1,29.85,SSW,208,0.0,0.0,98,0.08,,---,0.59,VWS V14.01,2013-01-30 06:48:00,
2013-01-29 22:53:00,44.6,44.1,29.85,SSE,163,2.7,3.1,98,0.12,,---,0.63,VWS V14.01,2013-01-30 06:53:00,
2013-01-29 22:58:00,44.6,44.1,29.85,SSW,209,0.0,0.0,98,0.12,,---,0.63,VWS V14.01,2013-01-30 06:58:00,
2013-01-29 23:03:00,44.6,44.1,29.85,WNW,285,3.6,3.6,98,0.12,,---,0.63,VWS V14.01,2013-01-30 07:03:00,
2013-01-29 23:08:00,44.6,44.1,29.85,West,268,2.7,2.7,98,0.12,,---,0.63,VWS V14.01,2013-01-30 07:08:00,
2013-01-29 23:13:00,44.6,44.1,29.85,WSW,252,3.6,3.6,98,0.08,,---,0.63,VWS V14.01,2013-01-30 07:13:00,
2013-01-29 23:18:00,44.6,44.1,29.85,East,83,2.2,2.2,98,0.12,,---,0.67,VWS V14.01,2013-01-30 07:18:00,
2013-01-29 23:23:00,44.6,44.1,29.85,SW,219,0.0,0.0,98,0.12,,---,0.67,VWS V14.01,2013-01-30 07:23:00,
2013-01-29 23:28:00,44.6,44.1,29.85,ESE,112,2.2,3.1,98,0.12,,---,0.67,VWS V14.01,2013-01-30 07:28:00,
2013-01-29 23:33:00,44.6,44.1,29.85,SW,235,0.0,0.0,98,0.08,,---,0.67,VWS V14.01,2013-01-30 07:33:00,
2013-01-29 23:38:00,44.6,44.1,29.85,ENE,62,0.0,0.0,98,0.08,,---,0.67,VWS V14.01,2013-01-30 07:38:00,
2013-01-29 23:43:00,44.6,44.1,29.85,SE,126,0.0,0.0,98,0.08,,---,0.67,VWS V14.01,2013-01-30 07:43:00,
2013-01-29 23:48:00,44.6,44.1,29.85,SW,220,0.0,0.0,98,0.12,,---,0.71,VWS V14.01,2013-01-30 07:48:00,
2013-01-29 23:53:00,44.6,44.1,29.85,SW,220,0.0,0.0,98,0.08,,---,0.71,VWS V14.01,2013-01-30 07:53:00,
2013-01-29 23:58:00,44.6,44.1,29.85,SW,220,0.0,0.0,98,0.08,,---,0.71,VWS V14.01,2013-01-30 07:58:00,